Date,TemperatureHighF,TemperatureAvgF,TemperatureLowF,DewpointHighF,DewpointAvgF,DewpointLowF,HumidityHigh,HumidityAvg,HumidityLow,PressureMaxIn,PressureMinIn,WindSpeedMaxMPH,WindSpeedAvgMPH,GustSpeedMaxMPH,PrecipitationSumIn
2013-1-1,35,29,14,30,22,9,90,77,62,29.90,29.67,6,2,14,0.00
2013-1-2,31,18,10,22,11,2,85,76,66,30.07,29.86,4,0,10,0.00
2013-1-3,27,13,2,13,4,-4,79,68,49,30.10,29.95,2,0,5,0.00
2013-1-4,38,28,17,29,23,11,92,82,68,29.95,29.78,5,1,19,0.00
2013-1-5,40,32,22,31,26,20,91,78,58,30.23,29.82,4,1,9,0.00
2013-1-6,41,31,22,34,28,19,100,90,74,30.19,29.91,4,0,13,0.03
2013-1-7,39,31,22,31,26,19,100,83,59,30.37,29.94,3,0,9,0.01
2013-1-8,44,32,22,34,28,19,96,84,67,30.34,30.24,4,1,16,0.07
2013-1-9,41,35,24,38,32,24,100,90,73,30.37,29.98,5,1,17,0.23
2013-1-10,44,38,30,34,30,27,91,75,60,30.52,30.02,7,2,18,0.07
2013-1-11,38,32,26,34,30,25,100,93,77,30.52,30.20,0,0,3,0.08
2013-1-12,40,36,33,40,36,33,100,100,100,30.20,30.10,0,0,2,0.02
2013-1-13,47,43,38,47,43,38,100,100,100,30.13,29.97,2,0,10,0.00
2013-1-14,58,47,38,55,43,-100,100,90,68,30.24,29.85,4,1,13,0.00
2013-1-15,41,35,30,34,30,28,94,81,66,30.31,30.21,1,0,6,0.00
2013-1-16,33,31,29,33,31,29,100,99,92,30.23,29.80,0,0,1,0.01
2013-1-17,41,33,27,38,30,19,100,90,67,30.08,29.81,4,0,9,0.23
2013-1-18,28,20,15,18,8,3,69,59,45,30.42,30.03,4,1,14,0.00
2013-1-19,46,34,19,35,26,10,89,72,57,30.34,29.86,7,2,20,0.12
2013-1-20,50,38,27,37,30,16,90,74,55,29.91,29.53,10,4,24,0.00
2013-1-21,30,24,19,22,16,9,100,72,52,30.08,29.78,3,0,11,0.00
2013-1-22,27,19,12,22,13,4,100,78,51,30.06,29.74,4,1,12,0.00
2013-1-23,18,10,6,4,-2,-6,75,58,41,30.12,30.03,4,1,11,0.00
2013-1-24,21,10,0,2,-4,-8,71,54,35,30.22,30.04,5,1,14,0.00
2013-1-25,26,16,7,12,0,-7,74,48,36,30.29,30.05,3,0,15,0.00
2013-1-26,26,16,9,13,6,-1,92,66,37,30.23,29.99,3,1,13,0.00
2013-1-27,32,19,10,12,5,2,77,56,37,30.46,30.22,4,1,14,0.00
2013-1-28,30,23,16,26,16,5,100,74,50,30.45,30.03,2,0,9,0.00
2013-1-29,35,29,22,33,29,22,100,99,92,30.20,30.03,0,0,3,0.06
2013-1-30,56,44,32,56,44,32,100,100,100,30.16,29.46,7,2,23,0.25
2013-1-31,59,45,28,59,41,22,100,86,57,29.60,28.97,11,6,29,0.52
2013-2-1,36,27,21,23,15,9,80,61,48,30.08,29.60,5,2,19,0.00
2013-2-2,31,23,15,16,12,8,73,60,48,30.24,30.04,4,1,15,0.00
2013-2-3,28,24,18,25,22,16,100,93,67,30.06,29.74,1,0,4,0.00
2013-2-4,31,23,19,22,16,10,100,74,53,29.95,29.72,6,2,17,0.00
2013-2-5,31,24,19,24,16,10,97,71,56,30.03,29.94,1,0,6,0.00
2013-2-6,40,28,21,30,22,10,100,80,54,30.31,29.92,4,1,11,0.00
2013-2-7,33,23,15,12,9,4,79,54,38,30.53,30.31,2,0,7,0.00
2013-2-8,26,22,17,24,19,8,100,89,49,30.50,29.67,2,0,16,0.00
2013-2-9,25,18,13,23,15,5,100,88,69,30.22,29.63,6,3,19,0.00
2013-2-10,43,22,6,20,10,0,78,61,34,30.40,30.22,2,0,7,0.00
2013-2-11,33,27,20,33,23,11,100,86,64,30.36,29.64,0,0,2,0.23
2013-2-12,46,36,32,36,33,29,100,88,67,29.90,29.63,7,2,18,0.38
2013-2-13,46,34,27,34,28,25,93,82,59,29.88,29.73,2,0,6,0.04
2013-2-14,47,34,25,32,27,23,93,76,51,30.01,29.73,2,0,8,0.00
2013-2-15,51,37,26,40,33,25,100,85,64,30.01,29.91,5,1,13,0.00
2013-2-16,40,34,28,37,31,22,100,89,70,29.98,29.76,2,0,10,0.04
2013-2-17,28,21,16,23,13,6,98,72,56,29.76,29.43,8,4,21,0.00
2013-2-18,34,22,12,14,8,4,68,55,38,30.18,29.71,7,3,17,0.00
2013-2-19,47,33,20,40,25,7,100,73,53,30.19,29.62,4,1,14,0.22
2013-2-20,38,31,24,38,25,17,100,79,59,29.81,29.57,7,3,16,0.00
2013-2-21,38,26,22,23,18,15,85,71,51,30.23,29.79,6,2,17,0.00
2013-2-22,44,30,21,29,24,19,96,79,52,30.42,30.24,1,0,7,0.00
2013-2-23,38,33,28,34,31,26,100,93,83,30.36,29.96,1,0,7,0.00
2013-2-24,35,32,30,35,32,30,100,100,100,29.95,29.75,0,0,5,0.13
2013-2-25,42,33,28,39,33,28,100,99,88,30.27,29.94,0,0,1,0.27
2013-2-26,43,34,27,40,32,27,100,95,78,30.37,30.20,0,0,5,0.22
2013-2-27,39,35,32,39,35,32,100,100,100,30.20,29.62,2,0,14,1.41
2013-2-28,50,37,32,45,36,32,100,98,82,29.67,29.57,1,0,4,0.02
2013-3-1,41,35,30,37,33,30,100,93,80,29.72,29.56,2,0,8,0.00
2013-3-2,44,36,30,37,32,29,96,87,72,29.72,29.66,1,0,8,0.00
2013-3-3,43,35,31,37,32,29,100,91,80,29.68,29.60,2,0,7,0.00
2013-3-4,43,33,28,33,29,25,94,83,63,29.79,29.62,5,2,13,0.00
2013-3-5,50,36,29,37,31,26,100,82,59,30.11,29.79,3,1,11,0.00
2013-3-6,39,34,32,38,34,32,100,100,95,30.16,30.08,1,0,16,0.08
2013-3-7,36,32,30,36,32,30,100,100,93,30.13,30.04,1,0,11,0.14
2013-3-8,38,32,29,38,32,29,100,99,93,30.20,29.99,1,0,9,0.00
2013-3-9,55,36,24,36,30,24,100,81,40,30.39,30.18,1,0,7,0.57
2013-3-10,51,35,22,39,31,22,100,89,63,30.45,30.34,2,0,7,0.03
2013-3-11,52,40,32,42,37,32,100,90,66,30.35,30.18,4,1,12,0.00
2013-3-12,54,46,38,54,46,38,100,100,100,30.18,29.76,5,2,17,0.40
2013-3-13,54,42,34,48,36,25,100,80,51,29.82,29.74,4,1,11,0.00
2013-3-14,41,31,22,29,22,11,86,67,52,29.88,29.74,4,2,14,0.00
2013-3-15,43,30,18,32,19,8,99,66,36,29.89,29.67,4,1,17,0.00
2013-3-16,43,33,26,30,21,17,93,64,42,29.93,29.71,2,0,7,0.00
2013-3-17,43,30,21,23,17,10,90,60,35,30.35,29.92,5,1,16,0.00
2013-3-18,41,28,16,29,14,6,100,56,30,30.49,30.27,3,0,9,0.00
2013-3-19,36,31,26,36,31,26,100,100,100,30.27,29.68,1,0,9,0.00
2013-3-20,44,31,24,32,26,23,100,84,60,29.85,29.73,5,1,13,0.18
2013-3-21,44,31,20,30,25,19,100,81,48,29.84,29.64,1,0,5,0.24
2013-3-22,47,33,26,31,26,22,100,75,49,29.79,29.64,3,1,15,0.23
2013-3-23,46,34,25,30,26,22,92,73,50,29.84,29.68,6,2,15,0.00
2013-3-24,52,37,29,35,29,25,90,72,49,29.86,29.77,4,1,10,0.00
2013-3-25,36,32,28,34,30,26,96,93,85,29.82,29.60,0,0,7,0.00
2013-3-26,55,40,32,39,32,26,97,75,44,29.84,29.60,2,0,9,0.00
2013-3-27,58,41,30,40,31,24,87,67,44,29.93,29.79,3,1,17,0.00
2013-3-28,55,42,34,41,37,34,100,85,56,30.06,29.92,1,0,9,0.00
2013-3-29,60,44,35,44,37,34,98,77,48,30.10,30.01,2,0,7,0.00
2013-3-30,63,46,35,38,31,23,94,61,27,30.15,30.05,4,1,10,0.00
2013-3-31,62,44,28,43,33,24,100,69,33,30.16,29.79,7,2,18,0.04
2013-4-1,64,46,33,53,40,19,100,81,52,29.84,29.56,8,2,27,0.25
2013-4-2,45,34,28,25,20,16,68,55,40,29.98,29.84,8,3,18,0.00
2013-4-3,51,37,28,24,20,17,66,51,32,30.21,29.96,6,3,15,0.00
2013-4-4,61,42,28,30,24,19,71,50,27,30.34,30.09,5,2,18,0.00
2013-4-5,68,46,36,39,32,28,87,61,27,30.09,29.69,4,2,16,0.00
2013-4-6,54,39,30,29,18,12,75,45,25,30.38,29.94,5,2,17,0.00
2013-4-7,60,42,26,42,30,15,94,65,35,30.38,30.04,10,3,24,0.00
2013-4-8,70,54,41,49,44,40,100,72,41,30.15,30.00,2,1,10,0.00
2013-4-9,75,57,44,62,50,43,100,78,51,30.13,29.92,7,1,13,0.02
2013-4-10,67,52,45,58,50,45,100,92,69,30.10,29.92,2,0,5,0.24
2013-4-11,58,47,39,49,42,32,100,85,54,30.19,29.89,2,0,10,0.06
2013-4-12,40,37,35,40,37,35,100,100,95,30.21,29.86,1,0,14,0.49
2013-4-13,57,44,34,49,40,34,100,89,68,29.99,29.81,2,0,8,0.09
2013-4-14,58,46,36,43,38,32,100,77,51,30.27,29.96,4,1,12,0.00
2013-4-15,63,46,31,43,38,31,100,77,45,30.43,30.27,3,0,8,0.00
2013-4-16,71,52,37,56,47,37,100,84,53,30.44,30.11,9,3,23,0.00
2013-4-17,74,59,46,56,44,33,100,63,32,30.39,30.11,3,1,12,0.00
2013-4-18,70,52,36,48,40,34,97,66,39,30.48,30.19,5,2,17,0.00
2013-4-19,76,63,51,68,61,48,100,94,72,30.19,29.71,9,4,28,0.00
2013-4-20,66,54,42,66,46,30,100,78,52,30.26,29.68,8,2,21,0.36
2013-4-21,61,45,32,36,29,25,84,56,32,30.72,30.27,4,1,10,0.00
2013-4-22,60,43,30,38,34,29,100,74,35,30.79,30.64,3,0,14,0.00
2013-4-23,41,39,36,41,38,33,100,98,90,30.64,30.17,1,0,9,0.00
2013-4-24,80,58,40,62,49,40,100,78,34,30.17,29.83,5,2,17,0.00
2013-4-25,73,57,45,55,43,31,100,65,31,30.33,29.87,5,2,16,0.00
2013-4-26,70,51,35,45,39,31,96,67,39,30.47,30.32,3,0,9,0.00
2013-4-27,72,53,37,49,42,37,100,69,37,30.47,30.33,4,1,12,0.00
2013-4-28,79,56,38,52,43,36,100,65,33,30.38,30.25,3,1,9,0.00
2013-4-29,77,59,45,56,44,33,94,60,38,30.32,30.22,5,1,12,0.00
2013-4-30,78,60,47,44,37,31,73,45,27,30.42,30.30,3,0,11,0.00
2013-5-1,80,57,38,48,41,36,94,59,30,30.52,30.42,3,0,9,0.00
2013-5-2,87,59,45,54,46,39,95,67,30,30.55,30.39,2,0,11,0.00
2013-5-3,70,53,39,52,46,39,100,79,50,30.57,30.43,2,0,9,0.00
2013-5-4,73,54,40,54,43,29,100,73,27,30.43,30.33,2,0,9,0.00
2013-5-5,72,51,35,52,43,35,100,78,45,30.38,30.29,2,0,10,0.00
2013-5-6,82,56,36,56,48,36,100,78,34,30.32,30.18,2,0,7,0.00
2013-5-7,87,65,46,64,57,46,100,79,41,30.24,30.13,3,1,9,0.00
2013-5-8,78,63,53,70,62,53,100,95,74,30.26,30.12,2,0,11,0.06
2013-5-9,67,59,56,67,59,56,100,100,100,30.12,29.95,0,0,4,0.28
2013-5-10,86,67,52,71,61,52,100,84,53,30.01,29.95,2,0,8,0.00
2013-5-11,69,63,58,68,62,58,100,98,88,29.98,29.75,5,2,17,0.22
2013-5-12,75,61,49,66,55,38,100,83,56,29.85,29.62,3,1,10,0.08
2013-5-13,66,51,41,44,38,34,88,64,42,30.06,29.86,3,1,15,0.00
2013-5-14,68,50,38,44,39,36,97,68,40,30.08,30.00,2,0,8,0.00
2013-5-15,70,52,38,56,46,37,100,80,38,30.08,29.71,6,1,15,0.02
2013-5-16,87,68,52,57,50,41,100,60,31,29.86,29.67,6,2,15,0.00
2013-5-17,78,61,49,54,48,44,92,65,40,30.26,29.86,2,0,9,0.00
2013-5-18,81,60,44,55,49,44,100,72,34,30.34,30.25,2,0,6,0.00
2013-5-19,77,58,47,63,54,47,100,90,60,30.38,30.25,2,0,8,0.05
2013-5-20,86,68,55,75,65,55,100,92,68,30.25,29.96,2,0,6,0.05
2013-5-21,89,64,51,79,63,51,100,96,69,30.07,29.91,1,0,9,0.02
2013-5-22,71,57,50,70,57,50,100,100,96,30.13,29.92,2,0,6,0.52
2013-5-23,77,63,54,76,63,54,100,100,94,29.97,29.83,3,1,14,0.30
2013-5-24,72,62,48,71,62,48,100,100,96,29.88,29.68,3,0,7,0.88
2013-5-25,50,46,40,50,46,40,100,100,100,29.87,29.74,2,0,7,0.24
2013-5-26,60,48,39,52,44,39,100,90,70,30.11,29.72,3,1,8,0.03
2013-5-27,78,58,42,53,47,42,100,72,36,30.20,30.09,2,0,7,0.00
2013-5-28,80,60,44,58,52,44,100,79,42,30.25,30.18,1,0,6,0.00
2013-5-29,69,62,57,69,62,56,100,100,94,30.21,30.01,1,0,4,0.75
2013-5-30,91,75,62,80,70,62,100,87,64,30.12,30.05,2,0,10,0.00
2013-5-31,98,80,66,81,73,66,100,80,49,30.14,29.98,3,0,10,0.00
2013-6-1,98,82,70,78,73,68,96,77,45,30.02,29.89,3,1,16,0.00
2013-6-2,95,79,69,80,73,69,100,86,50,29.92,29.74,5,2,22,0.01
2013-6-3,81,69,59,77,66,53,100,92,74,29.88,29.79,2,0,8,0.52
2013-6-4,77,62,50,58,52,47,94,73,51,30.12,29.85,2,0,9,0.00
2013-6-5,82,64,50,62,55,50,100,76,43,30.20,30.10,1,0,6,0.00
2013-6-6,78,64,54,63,57,54,100,80,57,30.20,30.11,2,0,6,0.00
2013-6-7,57,55,52,57,55,52,100,100,100,30.12,29.84,1,0,8,1.94
2013-6-8,82,63,52,75,62,52,100,94,78,30.02,29.64,2,0,6,0.84
2013-6-9,86,69,56,70,63,56,100,83,55,30.19,30.02,2,0,6,0.00
2013-6-10,71,62,57,66,62,57,100,97,84,30.21,30.03,1,0,5,0.67
2013-6-11,62,58,55,62,58,55,100,100,100,30.02,29.59,1,0,8,1.29
2013-6-12,74,62,55,65,60,55,100,92,71,29.83,29.57,3,1,11,0.07
2013-6-13,64,57,52,64,57,52,100,100,96,29.82,29.69,0,0,5,0.57
2013-6-14,76,61,51,69,59,51,100,94,72,29.77,29.65,1,0,7,0.73
2013-6-15,84,68,54,64,58,53,100,74,41,29.94,29.78,1,0,6,0.00
2013-6-16,79,67,58,68,61,53,94,81,58,29.94,29.71,2,0,9,0.00
2013-6-17,90,69,60,74,65,60,100,90,55,29.91,29.79,2,0,14,0.63
2013-6-18,76,62,57,73,62,57,100,100,91,29.95,29.89,1,0,6,0.28
2013-6-19,79,64,55,68,59,55,100,86,57,30.14,29.90,1,0,4,0.06
2013-6-20,84,67,51,66,59,51,100,79,49,30.24,30.14,2,0,9,0.00
2013-6-21,90,73,57,73,65,57,100,80,48,30.24,30.18,2,0,7,0.00
2013-6-22,89,74,64,75,68,64,100,84,58,30.22,30.10,2,1,11,0.00
2013-6-23,95,78,64,83,73,64,100,86,65,30.15,29.99,3,1,13,0.00
2013-6-24,99,81,70,85,76,70,100,87,62,30.02,29.87,2,0,6,0.07
2013-6-25,96,80,68,83,75,68,100,87,60,29.92,29.71,3,0,11,0.00
2013-6-26,87,75,68,80,74,68,100,97,79,29.84,29.72,1,0,5,0.02
2013-6-27,73,67,63,73,67,63,100,100,100,29.85,29.74,0,0,5,0.02
2013-6-28,82,69,59,80,69,59,100,99,93,29.74,29.46,3,0,11,0.42
2013-6-29,87,76,70,80,74,70,100,94,72,29.69,29.49,3,1,13,0.00
2013-6-30,90,76,67,81,74,67,100,93,69,29.90,29.69,3,0,11,0.00
2013-7-1,82,74,71,81,74,71,100,100,95,30.04,29.90,1,0,5,1.31
2013-7-2,84,73,63,82,73,63,100,99,91,30.17,30.04,2,0,6,0.00
2013-7-3,91,74,61,84,73,61,100,96,79,30.17,30.09,2,0,12,0.00
2013-7-4,97,82,73,86,79,73,100,90,67,30.17,30.06,3,1,9,0.00
2013-7-5,98,84,75,86,80,75,100,88,66,30.12,29.99,2,1,10,0.00
2013-7-6,96,82,74,86,78,70,100,87,64,30.04,29.94,1,0,6,0.00
2013-7-7,96,79,70,85,76,70,100,93,68,29.98,29.86,1,0,4,0.00
2013-7-8,90,76,68,84,76,68,100,98,82,30.02,29.86,1,0,10,0.02
2013-7-9,72,68,65,72,68,65,100,100,100,30.06,30.00,0,0,3,0.01
2013-7-10,89,73,66,85,73,66,100,99,86,30.02,29.73,2,0,9,0.17
2013-7-11,82,75,70,82,75,70,100,100,99,29.88,29.72,0,0,5,0.05
2013-7-12,84,71,65,74,68,64,100,90,62,30.15,29.88,1,0,10,0.00
2013-7-13,78,70,64,77,70,64,100,99,92,30.25,30.15,0,0,5,0.00
2013-7-14,95,78,69,84,76,69,100,93,66,30.24,30.14,0,0,3,0.00
2013-7-15,96,81,72,85,78,72,100,91,63,30.14,30.03,0,0,4,0.00
2013-7-16,99,82,70,83,76,70,100,87,55,30.10,30.04,1,0,5,0.00
2013-7-17,100,83,71,84,78,71,100,86,57,30.11,29.92,2,0,8,0.00
2013-7-18,99,81,73,85,79,73,100,92,61,29.95,29.87,1,0,6,0.15
2013-7-19,102,85,72,86,80,72,100,87,58,29.88,29.65,3,1,19,0.00
2013-7-20,98,84,74,86,79,70,100,87,66,29.75,29.59,3,0,10,0.00
2013-7-21,86,74,67,77,72,67,100,91,72,29.92,29.75,1,0,6,0.00
2013-7-22,88,73,66,80,72,66,100,95,75,29.94,29.81,0,0,5,0.00
2013-7-23,80,72,68,80,72,68,100,100,100,29.80,29.46,0,0,3,2.01
2013-7-24,89,75,64,82,72,61,100,92,73,29.88,29.50,1,0,7,0.00
2013-7-25,64,60,58,63,59,55,100,96,86,30.02,29.88,0,0,4,0.16
2013-7-26,73,64,59,73,64,59,100,100,100,29.98,29.85,0,0,6,0.28
2013-7-27,88,72,60,78,69,60,100,91,63,29.96,29.90,2,0,7,0.00
2013-7-28,88,72,64,80,71,64,100,96,75,29.94,29.87,1,0,5,0.10
2013-7-29,88,73,67,81,72,67,100,97,79,29.95,29.86,4,0,18,0.60
2013-7-30,86,71,61,73,67,61,100,86,59,30.00,29.94,1,0,4,0.00
2013-7-31,86,71,61,72,67,61,100,89,60,30.04,29.94,1,0,5,0.00
2013-8-1,84,69,61,76,68,61,100,96,76,29.95,29.77,2,0,9,0.06
2013-8-2,87,71,63,79,68,63,100,91,64,29.78,29.70,2,0,7,0.85
2013-8-3,81,70,63,75,68,63,100,94,75,29.77,29.68,3,0,8,0.00
2013-8-4,85,68,58,71,64,58,100,87,60,29.80,29.67,1,0,3,0.00
2013-8-5,81,66,55,62,57,54,100,77,43,29.95,29.79,1,0,5,0.00
2013-8-6,85,66,52,67,59,52,100,82,48,30.05,29.95,0,0,4,0.00
2013-8-7,85,68,56,70,62,56,100,83,48,30.08,30.00,2,0,9,0.00
2013-8-8,82,72,64,79,71,64,100,98,90,30.02,29.90,2,0,8,0.01
2013-8-9,74,72,70,74,72,70,100,100,100,29.92,29.65,2,0,7,0.96
2013-8-10,87,73,63,77,69,61,100,88,64,29.91,29.69,2,0,6,0.00
2013-8-11,86,68,56,68,63,56,100,84,53,29.98,29.90,1,0,4,0.00
2013-8-12,87,71,60,71,66,60,100,86,56,29.93,29.82,1,0,6,0.00
2013-8-13,73,68,65,73,68,65,100,100,100,29.82,29.58,0,0,2,0.03
2013-8-14,80,67,58,66,62,57,100,86,59,29.86,29.56,3,0,7,0.00
2013-8-15,83,66,54,66,60,54,100,82,51,30.00,29.86,2,0,6,0.00
2013-8-16,84,67,56,69,62,56,100,85,54,30.09,30.00,1,0,4,0.00
2013-8-17,86,69,56,72,64,56,100,88,59,30.17,30.09,0,0,3,0.00
2013-8-18,79,68,58,73,66,58,100,94,75,30.17,29.98,0,0,4,0.00
2013-8-19,86,71,62,74,67,62,100,88,63,29.98,29.85,1,0,7,0.00
2013-8-20,91,75,64,76,69,64,100,85,54,29.99,29.87,1,0,4,0.00
2013-8-21,94,77,65,77,71,65,100,83,56,30.03,29.91,1,0,7,0.00
2013-8-22,93,77,66,80,73,66,100,89,58,29.93,29.72,3,0,14,0.00
2013-8-23,88,73,62,72,66,58,100,80,48,30.03,29.71,1,0,6,0.00
2013-8-24,84,67,54,62,58,54,100,77,42,30.22,30.03,1,0,5,0.00
2013-8-25,89,69,54,67,60,54,100,78,41,30.25,30.07,2,0,7,0.00
2013-8-26,83,72,64,74,69,62,100,91,74,30.07,29.76,2,0,7,0.00
2013-8-27,90,75,68,79,73,68,100,92,67,29.79,29.71,0,0,5,0.00
2013-8-28,92,74,64,79,71,64,100,92,63,29.87,29.73,1,0,8,0.00
2013-8-29,68,65,61,68,65,61,100,100,100,29.96,29.83,1,0,8,0.00
2013-8-30,89,71,58,78,69,58,100,92,67,29.92,29.71,2,0,6,0.00
2013-8-31,81,74,68,80,74,68,100,100,98,29.71,29.66,1,0,8,0.04
2013-9-1,85,74,69,81,74,69,100,99,89,29.77,29.67,2,0,9,0.00
2013-9-2,76,73,71,76,73,71,100,100,100,29.75,29.59,0,0,7,0.30
2013-9-3,81,72,64,78,71,63,100,98,91,29.69,29.58,1,0,4,0.00
2013-9-4,85,70,59,70,64,59,100,83,54,29.80,29.68,2,0,7,0.00
2013-9-5,74,63,52,65,59,51,100,87,57,30.02,29.74,0,0,5,0.02
2013-9-6,76,58,45,54,50,44,100,78,43,30.12,29.96,1,0,6,0.00
2013-9-7,85,65,50,66,58,50,100,81,48,29.96,29.73,2,0,8,0.00
2013-9-8,78,65,51,69,58,47,100,82,47,29.98,29.63,2,0,9,0.01
2013-9-9,74,58,44,56,51,44,100,80,46,30.11,29.97,1,0,9,0.00
2013-9-10,75,65,56,75,65,55,100,100,95,30.02,29.91,2,0,11,0.07
2013-9-11,98,80,68,86,76,68,100,89,63,29.95,29.82,2,0,9,0.00
2013-9-12,88,76,67,83,75,67,100,95,77,29.85,29.55,4,1,16,1.32
2013-9-13,77,67,59,76,67,59,100,100,95,29.64,29.45,0,0,4,0.25
2013-9-14,69,59,54,63,58,54,100,95,80,29.93,29.64,0,0,3,0.00
2013-9-15,76,60,48,62,55,48,100,87,57,30.03,29.92,2,0,7,0.00
2013-9-16,70,58,46,65,56,43,100,93,80,30.13,29.88,0,0,5,0.00
2013-9-17,67,52,40,52,46,40,100,84,56,30.29,30.13,1,0,8,0.00
2013-9-18,76,54,45,60,50,45,100,89,43,30.20,30.01,1,0,4,0.00
2013-9-19,82,64,52,65,58,52,100,83,53,30.01,29.91,1,0,3,0.00
2013-9-20,82,64,50,69,60,50,100,88,54,29.97,29.87,1,0,5,0.00
2013-9-21,76,64,52,71,63,52,100,95,81,29.90,29.60,3,1,17,0.00
2013-9-22,73,64,52,69,61,51,100,92,69,29.72,29.48,3,0,13,0.99
2013-9-23,68,53,46,55,49,45,100,86,62,29.88,29.72,1,0,8,0.01
2013-9-24,70,54,43,55,49,43,100,86,56,29.87,29.69,1,0,5,0.00
2013-9-25,73,56,46,61,54,46,100,92,66,29.87,29.75,0,0,5,0.00
2013-9-26,70,58,52,59,55,52,100,90,65,30.01,29.87,0,0,4,0.00
2013-9-27,66,58,52,62,57,52,100,96,85,30.14,30.01,0,0,5,0.00
2013-9-28,76,58,47,67,56,47,100,93,69,30.21,30.14,1,0,6,0.00
2013-9-29,71,56,47,62,52,47,100,91,56,30.15,30.00,1,0,5,0.00
2013-9-30,72,55,44,63,52,44,100,92,64,30.01,29.85,0,0,4,0.00
2013-10-1,80,61,46,65,57,46,100,89,57,29.85,29.73,0,0,4,0.00
2013-10-2,83,67,56,71,64,56,100,90,66,29.84,29.72,2,0,6,0.00
2013-10-3,80,65,55,64,59,55,100,83,52,29.97,29.84,1,0,5,0.00
2013-10-4,63,57,52,63,56,52,100,97,86,29.97,29.92,0,0,2,0.14
2013-10-5,68,60,56,67,60,56,100,100,94,30.00,29.94,0,0,3,0.00
2013-10-6,58,55,53,58,55,53,100,100,100,30.11,30.00,0,0,6,0.35
2013-10-7,76,63,55,75,63,55,100,100,95,30.01,29.67,5,1,25,0.23
2013-10-8,68,56,46,58,53,45,100,90,66,30.25,29.78,1,0,5,0.00
2013-10-9,64,50,40,56,48,40,100,94,72,30.35,30.24,1,0,6,0.00
2013-10-10,59,50,41,58,50,41,100,99,94,30.24,30.06,0,0,2,0.00
2013-10-11,72,56,46,64,52,46,100,89,53,30.06,29.97,1,0,5,0.00
2013-10-12,56,52,46,56,52,46,100,100,100,30.27,30.04,0,0,6,0.00
2013-10-13,58,50,43,57,50,43,100,99,91,30.32,30.26,0,0,7,0.00
2013-10-14,66,50,36,54,46,36,100,87,57,30.28,30.12,1,0,4,0.00
2013-10-15,68,56,50,63,55,50,100,97,81,30.14,30.05,0,0,5,0.00
2013-10-16,60,54,51,59,54,51,100,99,93,30.07,29.79,0,0,3,0.00
2013-10-17,76,60,49,68,58,49,100,93,67,29.80,29.59,2,0,9,0.00
2013-10-18,69,60,50,61,56,46,100,88,63,29.78,29.48,3,0,8,0.06
2013-10-19,69,55,44,53,48,44,100,81,53,29.84,29.62,2,0,8,0.00
2013-10-20,64,53,45,53,46,40,100,79,51,29.89,29.56,2,0,7,0.00
2013-10-21,68,52,41,52,45,40,99,78,53,29.99,29.87,2,0,8,0.00
2013-10-22,65,52,44,58,49,43,100,90,74,29.87,29.59,3,0,11,0.00
2013-10-23,51,45,37,43,40,37,100,83,64,29.68,29.47,0,0,3,0.00
2013-10-24,55,45,37,41,36,31,95,73,49,29.76,29.53,3,0,11,0.00
2013-10-25,51,42,35,40,35,31,100,79,56,30.03,29.76,2,0,5,0.00
2013-10-26,55,44,34,40,36,31,98,75,46,30.03,29.75,4,1,17,0.00
2013-10-27,55,47,40,43,39,35,93,75,55,29.95,29.68,2,0,11,0.00
2013-10-28,58,44,36,43,37,30,93,76,54,30.24,29.95,4,0,17,0.00
2013-10-29,51,36,27,33,28,26,97,74,42,30.34,30.24,1,0,4,0.00
2013-10-30,53,40,30,46,37,27,100,89,73,30.25,30.08,1,0,5,0.00
2013-10-31,58,46,32,58,46,32,100,100,100,30.13,29.68,2,0,15,0.19
2013-11-1,67,62,55,67,61,55,100,98,86,29.68,29.34,6,3,24,0.05
2013-11-2,67,54,44,55,50,44,100,88,60,29.63,29.48,1,0,4,0.00
2013-11-3,49,41,30,49,33,21,100,76,46,30.31,29.62,1,0,11,0.00
2013-11-4,45,32,26,27,23,20,86,69,45,30.59,30.31,1,0,8,0.00
2013-11-5,52,37,25,39,31,23,97,81,59,30.60,30.39,2,0,8,0.00
2013-11-6,62,49,39,52,46,37,100,89,67,30.40,29.94,4,1,15,0.00
2013-11-7,63,52,37,62,52,36,100,98,88,29.94,29.58,4,1,17,0.08
2013-11-8,48,38,31,40,32,27,95,80,68,29.99,29.71,4,1,11,0.00
2013-11-9,48,38,30,34,30,26,86,73,51,30.11,29.92,2,0,8,0.00
2013-11-10,53,43,37,48,39,33,100,88,74,29.92,29.64,5,0,11,0.02
2013-11-11,53,44,36,37,34,31,86,70,51,30.00,29.75,3,1,10,0.00
2013-11-12,47,35,26,42,29,20,100,80,67,30.08,29.79,3,0,20,0.04
2013-11-13,38,28,22,24,20,16,91,70,50,30.19,30.05,1,0,7,0.00
2013-11-14,52,38,27,34,27,20,76,64,46,30.05,29.94,3,0,10,0.00
2013-11-15,61,46,35,33,27,21,69,48,27,30.09,30.00,3,0,12,0.00
2013-11-16,62,47,36,38,34,31,84,62,39,30.23,30.09,1,0,4,0.00
2013-11-17,48,40,32,44,39,31,100,94,84,30.22,29.76,0,0,1,0.00
2013-11-18,64,54,44,60,49,38,100,84,64,29.76,29.44,5,1,15,0.23
2013-11-19,46,39,29,38,28,20,75,66,50,30.18,29.58,4,2,14,0.00
2013-11-20,43,31,24,23,20,17,79,63,43,30.54,30.19,2,0,10,0.00
2013-11-21,49,33,20,35,26,18,96,75,43,30.55,30.29,3,0,12,0.00
2013-11-22,45,42,39,45,42,35,100,98,87,30.29,29.74,0,0,4,0.11
2013-11-23,46,38,28,46,32,21,100,80,55,29.84,29.70,4,2,11,0.00
2013-11-24,28,23,18,21,10,2,82,57,35,30.11,29.71,8,3,23,0.00
2013-11-25,34,24,15,20,9,2,65,52,34,30.28,30.10,2,0,10,0.00
2013-11-26,38,33,29,33,27,18,100,79,60,30.25,29.98,2,0,10,0.12
2013-11-27,61,47,32,58,5,-100,100,74,100,29.97,29.16,8,1,23,1.78
2013-11-28,36,29,22,36,23,14,100,77,52,30.35,29.38,6,2,17,0.00
2013-11-29,35,24,16,22,16,9,93,71,49,30.66,30.35,2,0,9,0.00
2013-11-30,33,22,12,25,17,10,95,80,62,30.72,30.35,1,0,6,0.00
2013-12-1,34,31,29,34,30,25,100,97,85,30.35,29.95,0,0,3,0.20
2013-12-2,38,36,34,38,36,34,100,100,100,29.95,29.86,0,0,3,0.00
2013-12-3,49,37,31,45,37,31,100,98,79,29.89,29.78,2,0,7,0.00
2013-12-4,44,34,29,37,32,29,100,94,75,30.13,29.89,1,0,5,0.00
2013-12-5,44,35,29,44,35,29,100,100,100,30.14,29.85,2,0,5,0.01
2013-12-6,54,46,32,49,-26,-100,100,52,94,30.10,29.80,2,0,10,0.22
2013-12-7,39,32,26,36,31,25,100,97,85,30.38,30.02,2,0,9,0.06
2013-12-8,30,26,22,25,23,19,98,86,74,30.53,30.38,0,0,4,0.00
2013-12-9,33,29,24,33,29,23,100,99,84,30.43,29.82,0,0,2,0.03
2013-12-10,35,31,23,34,30,20,100,96,83,29.93,29.72,4,0,10,0.02
2013-12-11,32,25,21,25,21,18,96,86,69,30.13,29.93,5,1,16,0.00
2013-12-12,26,20,13,21,13,7,96,75,52,30.21,29.99,2,0,9,0.00
2013-12-13,29,20,12,22,15,6,93,81,70,30.33,29.92,4,1,15,0.00
2013-12-14,17,13,9,16,7,0,100,77,54,30.55,30.12,0,0,6,0.00
2013-12-15,29,22,16,28,21,16,100,99,92,30.10,29.39,1,0,13,0.00
2013-12-16,28,22,14,23,15,8,97,76,56,30.15,29.68,5,1,15,0.00
2013-12-17,15,10,0,15,7,-3,100,89,71,30.22,29.91,0,0,7,0.00
2013-12-18,34,24,13,27,22,13,100,91,72,30.03,29.83,3,0,12,0.00
2013-12-19,41,32,25,31,28,24,94,83,65,30.07,29.91,6,1,15,0.00
2013-12-20,51,39,31,40,34,30,95,84,66,30.07,29.86,4,1,14,0.32
2013-12-21,54,45,37,51,44,37,100,96,84,29.92,29.81,3,1,10,0.18
2013-12-22,48,39,32,48,39,32,100,100,100,29.99,29.76,2,0,9,0.01
2013-12-23,35,32,31,35,32,31,100,100,100,30.05,29.93,1,0,4,0.51
2013-12-24,36,31,24,34,27,20,100,86,66,30.16,30.01,2,0,8,0.00
2013-12-25,24,18,12,20,10,5,87,71,54,30.49,30.16,2,0,9,0.00
2013-12-26,27,22,16,27,20,10,100,92,77,30.45,30.05,1,0,4,0.00
2013-12-27,33,27,22,28,24,21,100,89,76,30.23,30.14,2,0,8,0.00
2013-12-28,44,33,23,35,29,22,100,86,66,30.17,29.95,4,1,13,0.05
2013-12-29,40,34,30,38,33,29,100,96,85,29.99,29.41,2,0,8,1.13
2013-12-30,39,31,16,38,27,12,100,86,63,30.13,29.49,5,1,11,0.00
2013-12-31,25,18,10,18,10,2,91,73,59,30.13,29.97,3,0,8,0.00
2014-1-1,28,20,15,17,13,8,87,72,57,30.34,30.13,3,0,10,0.00
2014-1-2,19,11,1,17,10,-1,98,93,87,30.32,29.83,1,0,14,0.00